Time,TemperatureF,DewpointF,PressureIn,WindDirection,WindDirectionDegrees,WindSpeedMPH,WindSpeedGustMPH,Humidity,HourlyPrecipIn,Conditions,Clouds,dailyrainin,SoftwareType,DateUTC
2013-03-25 00:02:00,33.0,32.0,-100.00,SW,235,2.0,4.0,95,0.00,,,-99.99,,2013-03-25 04:02:00,
2013-03-25 00:12:00,33.0,32.0,-100.00,South,185,2.0,3.0,96,0.00,,,-99.99,,2013-03-25 04:12:00,
2013-03-25 00:22:00,33.0,32.0,-100.00,South,180,1.0,2.0,96,0.00,,,-99.99,,2013-03-25 04:22:00,
2013-03-25 00:33:00,33.0,32.0,-100.00,South,180,1.0,2.0,96,0.00,,,-99.99,,2013-03-25 04:33:00,
2013-03-25 00:43:00,33.0,32.0,-100.00,SSW,200,0.0,1.0,96,0.00,,,-99.99,,2013-03-25 04:43:00,
2013-03-25 00:52:00,33.0,32.0,-100.00,SW,230,0.0,2.0,96,0.00,,,-99.99,,2013-03-25 04:52:00,
2013-03-25 01:03:00,33.0,32.0,-100.00,SW,230,0.0,2.0,96,0.00,,,-99.99,,2013-03-25 05:03:00,
2013-03-25 01:12:00,33.0,32.0,-100.00,NW,325,1.0,1.0,96,0.00,,,-99.99,,2013-03-25 05:12:00,
2013-03-25 01:22:00,33.0,32.0,-100.00,NW,325,1.0,1.0,96,0.00,,,-99.99,,2013-03-25 05:22:00,
2013-03-25 01:32:00,33.0,32.0,-100.00,NNW,340,1.0,2.0,96,0.00,,,-99.99,,2013-03-25 05:32:00,
2013-03-25 01:42:00,33.0,32.0,-100.00,NNE,15,4.0,5.0,96,0.00,,,-99.99,,2013-03-25 05:42:00,
2013-03-25 01:52:00,33.0,32.0,-100.00,NNE,15,4.0,5.0,96,0.00,,,-99.99,,2013-03-25 05:52:00,
2013-03-25 02:02:00,33.0,32.0,-100.00,SW,215,1.0,2.0,96,0.00,,,-99.99,,2013-03-25 06:02:00,
2013-03-25 02:12:00,33.0,32.0,-100.00,NW,305,1.0,2.0,96,0.00,,,-99.99,,2013-03-25 06:12:00,
2013-03-25 02:22:00,33.0,32.0,-100.00,NW,305,1.0,2.0,96,0.00,,,-99.99,,2013-03-25 06:22:00,
2013-03-25 02:32:00,33.0,32.0,-100.00,West,275,2.0,4.0,96,0.00,,,-99.99,,2013-03-25 06:32:00,
2013-03-25 02:42:00,33.0,32.0,-100.00,SW,230,2.0,2.0,96,0.00,,,-99.99,,2013-03-25 06:42:00,
2013-03-25 02:52:00,33.0,32.0,-100.00,SW,230,2.0,2.0,96,0.00,,,-99.99,,2013-03-25 06:52:00,
2013-03-25 03:02:00,33.0,32.0,-100.00,West,260,2.0,3.0,97,0.00,,,-99.99,,2013-03-25 07:02:00,
2013-03-25 03:12:00,33.0,32.0,-100.00,West,275,4.0,7.0,96,0.00,,,-99.99,,2013-03-25 07:12:00,
2013-03-25 03:22:00,33.0,32.0,-100.00,West,275,4.0,7.0,96,0.00,,,-99.99,,2013-03-25 07:22:00,
2013-03-25 03:32:00,33.0,32.0,-100.00,WNW,285,4.0,8.0,97,0.01,,,-99.99,,2013-03-25 07:32:00,
2013-03-25 03:42:00,33.0,32.0,-100.00,West,275,4.0,8.0,97,0.08,,,-99.99,,2013-03-25 07:42:00,
2013-03-25 03:52:00,33.0,32.0,-100.00,West,275,4.0,8.0,97,0.08,,,-99.99,,2013-03-25 07:52:00,
2013-03-25 04:03:00,32.0,32.0,-100.00,NW,305,4.0,9.0,98,0.21,,,-99.99,,2013-03-25 08:03:00,
2013-03-25 04:12:00,32.0,32.0,-100.00,NW,320,1.0,6.0,98,0.23,,,-99.99,,2013-03-25 08:12:00,
2013-03-25 04:23:00,32.0,32.0,-100.00,NW,320,1.0,6.0,98,0.23,,,-99.99,,2013-03-25 08:23:00,
2013-03-25 04:32:00,32.0,32.0,-100.00,NE,45,2.0,2.0,98,0.03,,,-99.99,,2013-03-25 08:32:00,
2013-03-25 04:43:00,32.0,32.0,-100.00,NNE,25,2.0,4.0,99,0.24,,,-99.99,,2013-03-25 08:43:00,
2013-03-25 04:52:00,32.0,32.0,-100.00,NE,50,2.0,4.0,99,0.54,,,-99.99,,2013-03-25 08:52:00,
2013-03-25 05:02:00,32.0,32.0,-100.00,NE,50,2.0,4.0,99,0.54,,,-99.99,,2013-03-25 09:02:00,
2013-03-25 05:12:00,32.0,32.0,-100.00,ENE,75,1.0,2.0,99,0.16,,,-99.99,,2013-03-25 09:12:00,
2013-03-25 05:22:00,32.0,32.0,-100.00,ENE,75,1.0,2.0,99,0.16,,,-99.99,,2013-03-25 09:22:00,
2013-03-25 05:33:00,32.0,32.0,-100.00,East,90,1.0,3.0,99,0.10,,,-99.99,,2013-03-25 09:33:00,
2013-03-25 05:43:00,32.0,32.0,-100.00,ENE,60,4.0,7.0,99,0.03,,,-99.99,,2013-03-25 09:43:00,
2013-03-25 05:52:00,32.0,32.0,-100.00,ENE,60,4.0,7.0,99,0.03,,,-99.99,,2013-03-25 09:52:00,
2013-03-25 06:03:00,32.0,32.0,-100.00,ENE,65,2.0,6.0,99,0.07,,,-99.99,,2013-03-25 10:03:00,
2013-03-25 06:12:00,32.0,31.0,-100.00,ENE,65,2.0,4.0,99,0.01,,,-99.99,,2013-03-25 10:12:00,
2013-03-25 06:22:00,32.0,31.0,-100.00,ENE,60,3.0,6.0,99,0.00,,,-99.99,,2013-03-25 10:22:00,
2013-03-25 06:33:00,32.0,31.0,-100.00,ENE,60,3.0,6.0,99,0.00,,,-99.99,,2013-03-25 10:33:00,
2013-03-25 06:42:00,32.0,31.0,-100.00,NNE,25,2.0,5.0,99,0.01,,,-99.99,,2013-03-25 10:42:00,
2013-03-25 06:53:00,32.0,31.0,-100.00,NNE,25,2.0,5.0,99,0.01,,,-99.99,,2013-03-25 10:53:00,
2013-03-25 07:03:00,31.0,31.0,-100.00,East,90,2.0,4.0,99,0.00,,,-99.99,,2013-03-25 11:03:00,
2013-03-25 07:12:00,31.0,31.0,-100.00,ENE,65,2.0,5.0,99,0.00,,,-99.99,,2013-03-25 11:12:00,
2013-03-25 07:23:00,31.0,31.0,-100.00,ENE,70,3.0,6.0,99,0.00,,,-99.99,,2013-03-25 11:23:00,
2013-03-25 07:32:00,31.0,31.0,-100.00,ENE,70,3.0,6.0,99,0.00,,,-99.99,,2013-03-25 11:32:00,
2013-03-25 07:42:00,31.0,31.0,-100.00,NE,45,3.0,7.0,99,0.00,,,-99.99,,2013-03-25 11:42:00,
2013-03-25 07:52:00,31.0,31.0,-100.00,NE,45,3.0,7.0,99,0.00,,,-99.99,,2013-03-25 11:52:00,
2013-03-25 08:03:00,31.0,31.0,-100.00,NNE,30,3.0,5.0,99,0.07,,,-99.99,,2013-03-25 12:03:00,
2013-03-25 08:13:00,32.0,31.0,-100.00,ENE,60,3.0,6.0,99,0.03,,,-99.99,,2013-03-25 12:13:00,
2013-03-25 08:23:00,32.0,31.0,-100.00,ENE,60,3.0,6.0,99,0.03,,,-99.99,,2013-03-25 12:23:00,
2013-03-25 08:32:00,31.0,31.0,-100.00,ENE,75,4.0,7.0,99,0.01,,,-99.99,,2013-03-25 12:32:00,
2013-03-25 08:42:00,32.0,31.0,-100.00,ENE,65,2.0,7.0,99,0.01,,,-99.99,,2013-03-25 12:42:00,
2013-03-25 08:53:00,32.0,31.0,-100.00,ENE,65,2.0,7.0,99,0.01,,,-99.99,,2013-03-25 12:53:00,
2013-03-25 09:03:00,32.0,32.0,-100.00,NE,50,3.0,7.0,99,0.00,,,-99.99,,2013-03-25 13:03:00,
2013-03-25 09:13:00,32.0,32.0,-100.00,NNE,30,3.0,7.0,99,0.01,,,-99.99,,2013-03-25 13:13:00,
2013-03-25 09:22:00,32.0,32.0,-100.00,NNE,15,3.0,4.0,99,0.03,,,-99.99,,2013-03-25 13:22:00,
2013-03-25 09:32:00,32.0,32.0,-100.00,NNE,15,3.0,4.0,99,0.03,,,-99.99,,2013-03-25 13:32:00,
2013-03-25 09:42:00,32.0,32.0,-100.00,NE,35,2.0,4.0,99,0.01,,,-99.99,,2013-03-25 13:42:00,
2013-03-25 09:52:00,32.0,32.0,-100.00,NE,35,2.0,4.0,99,0.01,,,-99.99,,2013-03-25 13:52:00,
2013-03-25 10:03:00,33.0,33.0,-100.00,NNE,20,4.0,6.0,99,0.01,,,-99.99,,2013-03-25 14:03:00,
2013-03-25 10:12:00,33.0,33.0,-100.00,North,0,2.0,6.0,99,0.01,,,-99.99,,2013-03-25 14:12:00,
2013-03-25 10:22:00,34.0,34.0,-100.00,North,0,3.0,7.0,99,0.01,,,-99.99,,2013-03-25 14:22:00,
2013-03-25 10:32:00,34.0,34.0,-100.00,North,0,3.0,7.0,99,0.01,,,-99.99,,2013-03-25 14:32:00,
2013-03-25 10:42:00,33.0,33.0,-100.00,NNE,20,6.0,7.0,99,0.00,,,-99.99,,2013-03-25 14:42:00,
2013-03-25 10:52:00,34.0,34.0,-100.00,North,10,4.0,7.0,99,0.00,,,-99.99,,2013-03-25 14:52:00,
2013-03-25 11:03:00,34.0,34.0,-100.00,North,10,4.0,7.0,99,0.00,,,-99.99,,2013-03-25 15:03:00,
2013-03-25 11:13:00,34.0,34.0,-100.00,NE,35,4.0,6.0,99,0.07,,,-99.99,,2013-03-25 15:13:00,
2013-03-25 11:23:00,34.0,34.0,-100.00,North,0,4.0,7.0,99,0.13,,,-99.99,,2013-03-25 15:23:00,
2013-03-25 11:33:00,34.0,34.0,-100.00,North,0,4.0,7.0,99,0.13,,,-99.99,,2013-03-25 15:33:00,
2013-03-25 11:42:00,35.0,35.0,-100.00,NNW,345,6.0,7.0,99,0.11,,,-99.99,,2013-03-25 15:42:00,
2013-03-25 11:53:00,34.0,34.0,-100.00,NNW,340,6.0,7.0,99,0.11,,,-99.99,,2013-03-25 15:53:00,
2013-03-25 12:03:00,34.0,34.0,-100.00,NNW,340,6.0,7.0,99,0.11,,,-99.99,,2013-03-25 16:03:00,
2013-03-25 12:12:00,35.0,35.0,-100.00,NNW,345,5.0,7.0,99,0.04,,,-99.99,,2013-03-25 16:12:00,
2013-03-25 12:23:00,35.0,35.0,-100.00,NNW,345,5.0,7.0,99,0.04,,,-99.99,,2013-03-25 16:23:00,
2013-03-25 12:33:00,36.0,36.0,-100.00,North,350,2.0,6.0,99,0.14,,,-99.99,,2013-03-25 16:33:00,
2013-03-25 12:43:00,35.0,35.0,-100.00,North,350,5.0,7.0,99,0.10,,,-99.99,,2013-03-25 16:43:00,
2013-03-25 12:52:00,35.0,35.0,-100.00,North,350,5.0,7.0,99,0.10,,,-99.99,,2013-03-25 16:52:00,
2013-03-25 13:03:00,36.0,36.0,-100.00,NW,325,3.0,6.0,99,0.03,,,-99.99,,2013-03-25 17:03:00,
2013-03-25 13:12:00,36.0,36.0,-100.00,NNW,340,4.0,6.0,98,0.00,,,-99.99,,2013-03-25 17:12:00,
2013-03-25 13:23:00,37.0,36.0,-100.00,NNW,345,5.0,7.0,96,0.00,,,-99.99,,2013-03-25 17:23:00,
2013-03-25 13:33:00,37.0,36.0,-100.00,NNW,345,5.0,7.0,96,0.00,,,-99.99,,2013-03-25 17:33:00,
2013-03-25 13:42:00,38.0,36.0,-100.00,North,0,4.0,7.0,92,0.00,,,-99.99,,2013-03-25 17:42:00,
2013-03-25 13:52:00,37.0,35.0,-100.00,NNW,340,4.0,6.0,91,0.00,,,-99.99,,2013-03-25 17:52:00,
2013-03-25 14:04:00,37.0,35.0,-100.00,NNW,340,4.0,6.0,91,0.00,,,-99.99,,2013-03-25 18:04:00,
2013-03-25 14:12:00,38.0,36.0,-100.00,North,0,3.0,6.0,91,0.00,,,-99.99,,2013-03-25 18:12:00,
2013-03-25 14:23:00,38.0,36.0,-100.00,North,0,3.0,6.0,91,0.00,,,-99.99,,2013-03-25 18:23:00,
2013-03-25 14:33:00,39.0,36.0,-100.00,NW,320,4.0,6.0,89,0.00,,,-99.99,,2013-03-25 18:33:00,
2013-03-25 14:42:00,39.0,35.0,-100.00,NW,310,3.0,6.0,84,0.00,,,-99.99,,2013-03-25 18:42:00,
2013-03-25 14:52:00,39.0,35.0,-100.00,NW,310,3.0,6.0,84,0.00,,,-99.99,,2013-03-25 18:52:00,
2013-03-25 15:03:00,40.0,34.0,-100.00,NNW,330,3.0,6.0,81,0.00,,,-99.99,,2013-03-25 19:03:00,
2013-03-25 15:13:00,38.0,33.0,-100.00,North,350,4.0,6.0,83,0.00,,,-99.99,,2013-03-25 19:13:00,
2013-03-25 15:23:00,38.0,33.0,-100.00,North,350,4.0,6.0,83,0.00,,,-99.99,,2013-03-25 19:23:00,
2013-03-25 15:33:00,37.0,33.0,-100.00,NNW,340,6.0,7.0,87,0.00,,,-99.99,,2013-03-25 19:33:00,
2013-03-25 15:42:00,37.0,35.0,-100.00,North,0,2.0,7.0,91,0.00,,,-99.99,,2013-03-25 19:42:00,
2013-03-25 15:52:00,36.0,35.0,-100.00,North,0,4.0,7.0,92,0.00,,,-99.99,,2013-03-25 19:52:00,
2013-03-25 16:02:00,36.0,35.0,-100.00,North,0,4.0,7.0,92,0.00,,,-99.99,,2013-03-25 20:02:00,
2013-03-25 16:12:00,37.0,35.0,-100.00,NNE,20,2.0,6.0,93,0.00,,,-99.99,,2013-03-25 20:12:00,
2013-03-25 16:22:00,37.0,35.0,-100.00,NNE,20,2.0,6.0,93,0.00,,,-99.99,,2013-03-25 20:22:00,
2013-03-25 16:32:00,38.0,36.0,-100.00,North,0,2.0,7.0,93,0.00,,,-99.99,,2013-03-25 20:32:00,
2013-03-25 16:42:00,37.0,35.0,-100.00,NNW,345,2.0,6.0,93,0.00,,,-99.99,,2013-03-25 20:42:00,
2013-03-25 16:52:00,37.0,35.0,-100.00,NNW,345,2.0,6.0,93,0.00,,,-99.99,,2013-03-25 20:52:00,
2013-03-25 17:03:00,37.0,34.0,-100.00,North,5,5.0,8.0,91,0.00,,,-99.99,,2013-03-25 21:03:00,
2013-03-25 17:12:00,36.0,34.0,-100.00,North,5,4.0,7.0,92,0.00,,,-99.99,,2013-03-25 21:12:00,
2013-03-25 17:22:00,36.0,34.0,-100.00,NNE,15,4.0,7.0,94,0.00,,,-99.99,,2013-03-25 21:22:00,
2013-03-25 17:33:00,36.0,34.0,-100.00,NNE,15,4.0,7.0,94,0.00,,,-99.99,,2013-03-25 21:33:00,
2013-03-25 17:43:00,35.0,34.0,-100.00,NNE,15,5.0,7.0,95,0.00,,,-99.99,,2013-03-25 21:43:00,
2013-03-25 17:52:00,35.0,34.0,-100.00,NNE,25,4.0,7.0,95,0.00,,,-99.99,,2013-03-25 21:52:00,
2013-03-25 18:03:00,35.0,34.0,-100.00,NNE,25,4.0,7.0,95,0.00,,,-99.99,,2013-03-25 22:03:00,
2013-03-25 18:12:00,35.0,34.0,-100.00,North,5,3.0,7.0,96,0.00,,,-99.99,,2013-03-25 22:12:00,
2013-03-25 18:23:00,35.0,34.0,-100.00,North,0,4.0,6.0,96,0.00,,,-99.99,,2013-03-25 22:23:00,
2013-03-25 18:33:00,35.0,34.0,-100.00,North,0,4.0,6.0,96,0.00,,,-99.99,,2013-03-25 22:33:00,
2013-03-25 18:42:00,35.0,34.0,-100.00,NNE,15,3.0,6.0,97,0.00,,,-99.99,,2013-03-25 22:42:00,
2013-03-25 18:52:00,35.0,34.0,-100.00,NNE,15,3.0,6.0,97,0.00,,,-99.99,,2013-03-25 22:52:00,
2013-03-25 19:03:00,34.0,34.0,-100.00,NNE,20,4.0,6.0,98,0.00,,,-99.99,,2013-03-25 23:03:00,
2013-03-25 19:12:00,34.0,33.0,-100.00,NNE,15,2.0,5.0,98,0.00,,,-99.99,,2013-03-25 23:12:00,
2013-03-25 19:23:00,33.0,33.0,-100.00,NNW,335,1.0,4.0,98,0.00,,,-99.99,,2013-03-25 23:23:00,
2013-03-25 19:32:00,33.0,33.0,-100.00,NNW,335,1.0,4.0,98,0.00,,,-99.99,,2013-03-25 23:32:00,
2013-03-25 19:43:00,33.0,33.0,-100.00,NNW,340,3.0,5.0,99,0.01,,,-99.99,,2013-03-25 23:43:00,
2013-03-25 19:52:00,33.0,33.0,-100.00,North,350,2.0,4.0,99,0.01,,,-99.99,,2013-03-25 23:52:00,
2013-03-25 20:02:00,33.0,33.0,-100.00,North,350,2.0,4.0,99,0.01,,,-99.99,,2013-03-26 00:02:00,
2013-03-25 20:12:00,33.0,33.0,-100.00,NNW,335,1.0,3.0,99,0.01,,,-99.99,,2013-03-26 00:12:00,
2013-03-25 20:22:00,33.0,33.0,-100.00,NNW,335,1.0,3.0,99,0.01,,,-99.99,,2013-03-26 00:22:00,
2013-03-25 20:32:00,33.0,33.0,-100.00,NNW,345,1.0,3.0,99,0.00,,,-99.99,,2013-03-26 00:32:00,
2013-03-25 20:42:00,33.0,32.0,-100.00,NNW,335,2.0,3.0,99,0.00,,,-99.99,,2013-03-26 00:42:00,
2013-03-25 20:52:00,32.0,32.0,-100.00,NNW,330,2.0,3.0,99,0.00,,,-99.99,,2013-03-26 00:52:00,
2013-03-25 21:02:00,32.0,32.0,-100.00,NNW,330,2.0,3.0,99,0.00,,,-99.99,,2013-03-26 01:02:00,
2013-03-25 21:12:00,33.0,32.0,-100.00,NNW,335,2.0,4.0,99,0.00,,,-99.99,,2013-03-26 01:12:00,
2013-03-25 21:22:00,33.0,32.0,-100.00,NNW,335,2.0,4.0,99,0.00,,,-99.99,,2013-03-26 01:22:00,
2013-03-25 21:32:00,32.0,32.0,-100.00,NW,325,2.0,4.0,99,0.00,,,-99.99,,2013-03-26 01:32:00,
2013-03-25 21:42:00,33.0,32.0,-100.00,NNW,340,1.0,3.0,99,0.00,,,-99.99,,2013-03-26 01:42:00,
2013-03-25 21:52:00,33.0,32.0,-100.00,NNW,340,1.0,3.0,99,0.00,,,-99.99,,2013-03-26 01:52:00,
2013-03-25 22:02:00,32.0,32.0,-100.00,NW,320,1.0,2.0,99,0.00,,,-99.99,,2013-03-26 02:02:00,
2013-03-25 22:12:00,32.0,32.0,-100.00,NW,320,1.0,2.0,99,0.00,,,-99.99,,2013-03-26 02:12:00,
2013-03-25 22:22:00,32.0,32.0,-100.00,NW,320,1.0,2.0,99,0.00,,,-99.99,,2013-03-26 02:22:00,
2013-03-25 22:32:00,32.0,32.0,-100.00,WNW,300,0.0,2.0,99,0.00,,,-99.99,,2013-03-26 02:32:00,
2013-03-25 22:42:00,32.0,32.0,-100.00,West,275,1.0,3.0,99,0.00,,,-99.99,,2013-03-26 02:42:00,
2013-03-25 22:52:00,32.0,32.0,-100.00,West,275,1.0,3.0,99,0.00,,,-99.99,,2013-03-26 02:52:00,
2013-03-25 23:02:00,32.0,32.0,-100.00,West,270,1.0,2.0,99,0.00,,,-99.99,,2013-03-26 03:02:00,
2013-03-25 23:12:00,32.0,32.0,-100.00,WNW,295,1.0,2.0,99,0.00,,,-99.99,,2013-03-26 03:12:00,
2013-03-25 23:22:00,32.0,32.0,-100.00,WNW,295,1.0,2.0,99,0.00,,,-99.99,,2013-03-26 03:22:00,
2013-03-25 23:34:00,32.0,32.0,-100.00,WNW,285,1.0,4.0,99,0.00,,,-99.99,,2013-03-26 03:34:00,
2013-03-25 23:42:00,32.0,32.0,-100.00,WNW,295,1.0,3.0,99,0.00,,,-99.99,,2013-03-26 03:42:00,
2013-03-25 23:52:00,32.0,32.0,-100.00,WNW,295,1.0,3.0,99,0.00,,,-99.99,,2013-03-26 03:52:00,